Bethlehem, NH (03574)

8:38 AM EDT on August 27, 2014 (GMT -0400)
HADS AMMONOOSUC RIVER NR BETHLEHEM USGS | Change Station
CLOSE
Current Station
Personal Weather Station
Location: Bethlehem, NH
Elevation: 1239 ft
Nearby Weather Stations

Elev 1239 ft 44.27 °N, 71.63 °W | Updated 1 hour ago

Overcast
Overcast
59 °F
Feels Like 59 °F
N
Wind Variable Wind from North
Gusts 0.0 mph

Today
High -- | Low -- °F
--% Chance of Precip.
Yesterday
High -- | Low -- °F
Precip. -- in
6:03 AM 7:31 PM
Waxing Crescent, 3% visible
Pressure 29.98 in
Visibility 10.0 miles
Clouds Mostly Cloudy 3400 ft
Overcast 6500 ft
Dew Point Not available.
Humidity Not available.
Rainfall 0.00 in
Snow Depth Not available.
UV 0 out of 12
Pollen 8.20 out of 12
PM2.5 Good
Flu Activity Not available.
METAR KHIE 271152Z AUTO 00000KT 10SM BKN034 OVC065 16/14 A2998 RMK AO2 SLP150 T01560139 10161 20128 53004

More Conditions Fewer Conditions

Pressure 29.98 in
Visibility 10.0 miles
Clouds Mostly Cloudy 3400 ft
Overcast 6500 ft
Dew Point Not available.
Humidity Not available.
Rainfall 0.00 in
Snow Depth Not available.
UV 0 out of 12
Pollen 8.20 out of 12
PM2.5 Good
Flu Activity Not available.
METAR KHIE 271152Z AUTO 00000KT 10SM BKN034 OVC065 16/14 A2998 RMK AO2 SLP150 T01560139 10161 20128 53004

More Conditions Fewer Conditions

10-Day Weather Forecast

Almanac

Astronomy

Aug. 27, 2014 Rise Set
Actual Time 6:03 AM EDT 7:31 PM EDT
Civil Twilight 5:33 AM EDT 8:01 PM EDT
Nautical Twilight 4:56 AM EDT 8:38 PM EDT
Astronomical Twilight 4:17 AM EDT 9:17 PM EDT
Moon 8:02 AM EDT 8:15 PM EDT
Length of Visible Light 14h 28m
Length of Day
13h 28m
Tomorrow will be 2m 54s shorter.
Waxing Crescent, 3% of the Moon is Illuminated
Today
Waxing Crescent
Sep 2
First Quarter
Sep 8
Full
Sep 15
Last Quarter
Sep 24
New

Today's Extremes

State Highs State Lows

Community

WunderPhotos

Upload Photos

1,747,676 photos uploaded!

Nearby

Air Quality

  Air Quality AQ Index Pollutant
Yesterday Good
OZONE
Yesterday Good
PM2.5
Current Good
PM2.5
Wednesday Good
PM2.5
Wednesday Good
OZONE

Snow Depth

Station Depth Elevation
No new snow has been reported.

Earthquake Activity

City Distance Mag. Time & Date
No recent earthquake activity has been reported nearby.
Minimum magnitude displayed is 2.5.

Coastal Water Temperatures

Place Temperature
No Stations Reporting

Nearby Weather Stations